createdAt,value
2018-02-11T00:01:06.768Z,9.17
2018-02-11T00:03:34.389Z,10.47
2018-02-11T00:06:02.009Z,6.77
2018-02-11T00:08:29.619Z,6.90
2018-02-11T00:10:57.233Z,9.27
2018-02-11T00:13:24.862Z,7.23
2018-02-11T00:15:52.475Z,9.93
2018-02-11T00:18:20.859Z,9.40
2018-02-11T00:20:48.463Z,6.97
2018-02-11T00:23:16.083Z,9.30
2018-02-11T00:25:43.691Z,8.70
2018-02-11T00:28:11.316Z,8.07
2018-02-11T00:30:38.928Z,8.87
2018-02-11T00:33:06.558Z,8.13
2018-02-11T00:35:34.940Z,7.93
2018-02-11T00:38:03.324Z,9.00
2018-02-11T00:40:30.950Z,9.20
2018-02-11T00:42:58.568Z,8.77
2018-02-11T00:45:26.186Z,6.93
2018-02-11T00:47:53.797Z,6.47
2018-02-11T00:50:22.189Z,8.87
2018-02-11T00:52:49.804Z,11.20
2018-02-11T00:55:17.428Z,9.03
2018-02-11T00:57:45.056Z,8.77
2018-02-11T01:00:12.680Z,8.10
2018-02-11T01:02:40.300Z,13.90
2018-02-11T01:05:08.696Z,7.50
2018-02-11T01:07:36.316Z,10.07
2018-02-11T01:10:04.026Z,9.23
2018-02-11T01:12:32.409Z,9.20
2018-02-11T01:15:00.800Z,8.97
2018-02-11T01:17:28.419Z,10.53
2018-02-11T01:19:56.040Z,10.23
2018-02-11T01:22:23.652Z,9.33
2018-02-11T01:24:51.273Z,11.83
2018-02-11T01:27:18.897Z,12.37
2018-02-11T01:29:46.522Z,10.33
2018-02-11T01:32:14.135Z,8.20
2018-02-11T01:34:41.766Z,10.50
2018-02-11T01:37:09.392Z,12.10
2018-02-11T01:39:37.008Z,13.70
2018-02-11T01:42:04.638Z,11.97
2018-02-11T01:44:32.263Z,11.13
2018-02-11T01:46:59.887Z,10.87
2018-02-11T01:49:27.523Z,14.33
2018-02-11T01:51:55.140Z,17.17
2018-02-11T01:54:22.776Z,11.87
2018-02-11T01:56:50.410Z,9.80
2018-02-11T01:59:18.799Z,8.80
2018-02-11T02:01:47.185Z,11.73
2018-02-11T02:07:16.580Z,15.67
2018-02-11T02:09:44.979Z,11.67
2018-02-11T02:12:12.615Z,10.30
2018-02-11T02:14:40.228Z,15.03
2018-02-11T02:17:07.863Z,13.87
2018-02-11T02:19:36.276Z,8.93
2018-02-11T02:22:03.923Z,11.03
2018-02-11T02:24:31.573Z,10.50
2018-02-11T02:26:59.195Z,13.10
2018-02-11T02:29:26.811Z,11.43
2018-02-11T02:31:55.210Z,11.23
2018-02-11T02:34:22.828Z,9.50
2018-02-11T02:36:50.452Z,9.97
2018-02-11T02:39:18.104Z,11.93
2018-02-11T02:41:46.496Z,10.37
2018-02-11T02:44:14.120Z,12.40
2018-02-11T02:46:42.516Z,8.00
2018-02-11T02:49:10.141Z,11.07
2018-02-11T02:51:37.777Z,12.23
2018-02-11T02:54:05.402Z,12.20
2018-02-11T02:56:33.024Z,10.03
2018-02-11T02:59:00.651Z,13.43
2018-02-11T03:01:29.039Z,11.07
2018-02-11T03:03:56.655Z,8.90
2018-02-11T03:06:24.267Z,7.77
2018-02-11T03:08:52.663Z,10.77
2018-02-11T03:11:20.284Z,10.60
2018-02-11T03:13:47.909Z,9.77
2018-02-11T03:16:15.527Z,8.43
2018-02-11T03:18:43.141Z,7.23
2018-02-11T03:21:10.752Z,9.33
2018-02-11T03:23:38.420Z,10.13
2018-02-11T03:26:06.059Z,8.93
2018-02-11T03:28:33.671Z,7.93
2018-02-11T03:31:01.297Z,8.50
2018-02-11T03:33:28.933Z,7.47
2018-02-11T03:35:56.551Z,6.43
2018-02-11T03:38:24.163Z,8.40
2018-02-11T03:40:51.788Z,8.40
2018-02-11T03:43:19.794Z,5.53
2018-02-11T03:45:48.192Z,4.27
2018-02-11T03:48:15.813Z,5.80
2018-02-11T03:50:43.432Z,5.33
2018-02-11T03:53:11.054Z,8.10
2018-02-11T03:55:38.663Z,6.13
2018-02-11T03:58:06.284Z,5.33
2018-02-11T04:00:34.257Z,4.93
2018-02-11T04:03:01.880Z,8.33
2018-02-11T04:05:29.500Z,7.63
2018-02-11T04:07:57.896Z,5.07
2018-02-11T04:10:26.269Z,7.10
2018-02-11T04:12:53.884Z,6.43
2018-02-11T04:15:21.525Z,4.90
2018-02-11T04:17:49.145Z,10.10
2018-02-11T04:20:16.759Z,4.80
2018-02-11T04:22:44.388Z,8.10
2018-02-11T04:25:12.016Z,5.63
2018-02-11T04:27:39.619Z,4.93
2018-02-11T04:30:07.275Z,4.73
2018-02-11T04:32:35.665Z,5.70
2018-02-11T04:35:03.283Z,4.50
2018-02-11T04:37:30.918Z,6.80
2018-02-11T04:39:59.305Z,8.57
2018-02-11T04:42:27.691Z,6.80
2018-02-11T04:44:55.312Z,8.83
2018-02-11T04:47:22.939Z,8.07
2018-02-11T04:49:50.548Z,6.53
2018-02-11T04:52:18.168Z,8.37
2018-02-11T04:54:45.792Z,9.63
2018-02-11T04:57:14.180Z,8.27
2018-02-11T04:59:41.814Z,6.90
2018-02-11T05:02:09.428Z,4.83
2018-02-11T05:04:37.812Z,8.33
2018-02-11T05:07:07.173Z,6.07
2018-02-11T05:09:34.792Z,5.37
2018-02-11T05:12:02.429Z,3.80
2018-02-11T05:14:30.100Z,3.63
2018-02-11T05:16:57.748Z,6.13
2018-02-11T05:19:25.371Z,4.73
2018-02-11T05:21:52.990Z,2.77
2018-02-11T05:24:20.605Z,4.50
2018-02-11T05:26:48.219Z,5.10
2018-02-11T05:29:15.839Z,3.10
2018-02-11T05:31:43.451Z,3.83
2018-02-11T05:34:11.071Z,3.00
2018-02-11T05:36:38.696Z,3.97
2018-02-11T05:39:07.084Z,3.20
2018-02-11T05:41:35.468Z,4.30
2018-02-11T05:44:03.089Z,2.90
2018-02-11T05:46:30.712Z,3.60
2018-02-11T05:48:59.110Z,6.30
2018-02-11T05:51:26.730Z,3.33
2018-02-11T05:53:54.343Z,2.20
2018-02-11T05:56:21.980Z,6.43
2018-02-11T05:58:49.584Z,2.30
2018-02-11T06:01:17.197Z,2.40
2018-02-11T06:03:44.815Z,2.60
2018-02-11T06:06:12.476Z,1.50
2018-02-11T06:08:40.094Z,2.23
2018-02-11T06:11:07.724Z,2.20
2018-02-11T06:13:35.344Z,1.70
2018-02-11T06:16:03.787Z,2.57
2018-02-11T06:18:32.112Z,4.90
2018-02-11T06:21:00.508Z,2.30
2018-02-11T06:23:28.122Z,3.10
2018-02-11T06:25:55.740Z,2.70
2018-02-11T06:28:23.364Z,1.80
2018-02-11T06:30:50.980Z,2.27
2018-02-11T06:33:18.595Z,1.70
2018-02-11T06:35:46.213Z,2.40
2018-02-11T06:38:13.848Z,3.00
2018-02-11T06:40:41.463Z,1.40
2018-02-11T06:43:09.080Z,1.40
2018-02-11T06:45:37.483Z,1.50
2018-02-11T06:48:05.098Z,3.37
2018-02-11T06:50:32.804Z,4.30
2018-02-11T06:53:01.184Z,1.47
2018-02-11T06:55:28.823Z,1.43
2018-02-11T06:57:56.441Z,1.33
2018-02-11T07:00:24.504Z,2.40
2018-02-11T07:02:52.893Z,1.40
2018-02-11T07:05:20.518Z,1.50
2018-02-11T07:07:48.132Z,1.90
2018-02-11T07:10:15.752Z,1.43
2018-02-11T07:12:43.393Z,2.40
2018-02-11T07:15:10.990Z,2.80
2018-02-11T07:17:38.673Z,1.80
2018-02-11T07:20:07.048Z,1.97
2018-02-11T07:22:34.672Z,2.40
2018-02-11T07:25:02.324Z,1.80
2018-02-11T07:27:29.944Z,2.07
2018-02-11T07:29:57.573Z,1.87
2018-02-11T07:32:25.181Z,2.90
2018-02-11T07:34:56.607Z,2.33
2018-02-11T07:37:24.224Z,1.90
2018-02-11T07:39:51.854Z,3.00
2018-02-11T07:42:19.460Z,2.93
2018-02-11T07:44:47.080Z,1.73
2018-02-11T07:47:14.696Z,3.80
2018-02-11T07:49:43.081Z,3.10
2018-02-11T07:52:10.705Z,2.63
2018-02-11T07:54:38.350Z,3.27
2018-02-11T07:57:05.936Z,4.33
2018-02-11T07:59:33.547Z,2.43
2018-02-11T08:02:01.182Z,3.00
2018-02-11T08:04:29.576Z,3.63
2018-02-11T08:06:57.968Z,2.33
2018-02-11T08:09:25.589Z,4.30
2018-02-11T08:11:53.200Z,2.40
2018-02-11T08:14:20.820Z,4.37
2018-02-11T08:16:48.456Z,2.17
2018-02-11T08:19:16.066Z,2.13
2018-02-11T08:21:43.716Z,2.10
2018-02-11T08:24:11.323Z,1.93
2018-02-11T08:26:38.941Z,6.27
2018-02-11T08:29:12.511Z,3.00
2018-02-11T08:31:40.132Z,3.60
2018-02-11T08:34:07.776Z,2.43
2018-02-11T08:36:35.387Z,2.60
2018-02-11T08:39:03.017Z,2.40
2018-02-11T08:41:40.982Z,3.27
2018-02-11T08:44:08.594Z,2.47
2018-02-11T08:46:40.849Z,3.80
2018-02-11T08:49:08.468Z,2.03
2018-02-11T08:51:36.083Z,2.50
2018-02-11T08:54:03.700Z,2.23
2018-02-11T08:56:31.320Z,3.27
2018-02-11T08:58:58.939Z,3.00
2018-02-11T09:04:13.452Z,2.97
2018-02-11T09:06:41.068Z,4.60
2018-02-11T09:09:08.692Z,3.33
2018-02-11T09:11:37.845Z,2.40
2018-02-11T09:14:05.456Z,3.30
2018-02-11T09:16:33.080Z,4.00
2018-02-11T09:19:00.696Z,5.33
2018-02-11T09:21:28.312Z,4.07
2018-02-11T09:23:55.932Z,3.07
2018-02-11T09:26:23.560Z,3.73
2018-02-11T09:28:51.168Z,6.83
2018-02-11T09:31:19.545Z,5.10
2018-02-11T09:33:47.209Z,9.53
2018-02-11T09:36:15.184Z,5.37
2018-02-11T09:38:42.795Z,4.33
2018-02-11T09:41:10.412Z,3.73
2018-02-11T09:43:38.031Z,3.73
2018-02-11T09:46:05.642Z,5.33
2018-02-11T09:48:33.256Z,7.33
2018-02-11T09:51:00.860Z,6.23
2018-02-11T09:53:28.506Z,5.87
2018-02-11T09:55:56.112Z,6.73
2018-02-11T09:58:23.732Z,5.17
2018-02-11T10:00:51.516Z,9.23
2018-02-11T10:03:19.112Z,7.20
2018-02-11T10:05:46.728Z,4.87
2018-02-11T10:08:14.336Z,5.23
2018-02-11T10:10:41.951Z,7.03
2018-02-11T10:13:09.567Z,6.13
2018-02-11T10:15:37.180Z,8.47
2018-02-11T10:18:04.802Z,8.13
2018-02-11T10:20:32.412Z,7.93
2018-02-11T10:23:00.033Z,6.27
2018-02-11T10:25:27.639Z,9.60
2018-02-11T10:27:55.243Z,6.83
2018-02-11T10:30:22.875Z,6.70
2018-02-11T10:32:50.492Z,9.13
2018-02-11T10:35:18.109Z,10.70
2018-02-11T10:37:45.728Z,8.27
2018-02-11T10:40:13.353Z,7.60
2018-02-11T10:42:44.208Z,8.37
2018-02-11T10:45:11.824Z,7.47
2018-02-11T10:47:40.197Z,6.60
2018-02-11T10:50:08.576Z,11.07
2018-02-11T10:52:36.960Z,7.50
2018-02-11T10:55:05.336Z,9.20
2018-02-11T10:57:32.972Z,7.97
2018-02-11T11:00:00.584Z,7.87
2018-02-11T11:02:28.973Z,8.73
2018-02-11T11:04:57.366Z,13.57
2018-02-11T11:07:24.980Z,7.37
2018-02-11T11:09:52.596Z,6.93
2018-02-11T11:12:20.224Z,9.07
2018-02-11T11:14:47.852Z,10.90
2018-02-11T11:17:15.471Z,11.63
2018-02-11T11:19:43.097Z,6.83
2018-02-11T11:22:10.704Z,9.53
2018-02-11T11:24:39.099Z,9.97
2018-02-11T11:27:06.724Z,10.33
2018-02-11T11:29:34.329Z,6.77
2018-02-11T11:32:02.711Z,8.20
2018-02-11T11:34:31.089Z,11.07
2018-02-11T11:37:05.961Z,8.63
2018-02-11T11:39:33.581Z,10.50
2018-02-11T11:42:01.960Z,5.60
2018-02-11T11:44:29.588Z,7.53
2018-02-11T11:46:57.184Z,10.53
2018-02-11T11:49:25.569Z,8.20
2018-02-11T11:51:53.179Z,7.00
2018-02-11T11:54:20.802Z,10.57
2018-02-11T11:56:48.426Z,18.03
2018-02-11T11:59:16.046Z,9.27
2018-02-11T12:01:44.429Z,7.83
2018-02-11T12:04:12.816Z,10.07
2018-02-11T12:06:41.203Z,9.80
2018-02-11T12:09:09.584Z,8.83
2018-02-11T12:11:37.208Z,11.07
2018-02-11T12:14:04.827Z,9.57
2018-02-11T12:16:32.452Z,9.00
2018-02-11T12:19:00.073Z,4.63
2018-02-11T12:21:27.688Z,8.53
2018-02-11T12:23:55.308Z,11.80
2018-02-11T12:26:22.929Z,7.43
2018-02-11T12:28:50.551Z,8.67
2018-02-11T12:31:18.164Z,7.37
2018-02-11T12:33:46.574Z,6.00
2018-02-11T12:36:14.181Z,5.80
2018-02-11T12:38:41.791Z,8.03
2018-02-11T12:41:10.188Z,7.07
2018-02-11T12:43:37.799Z,10.47
2018-02-11T12:46:05.424Z,6.93
2018-02-11T12:48:33.052Z,9.90
2018-02-11T12:51:00.664Z,7.83
2018-02-11T12:53:28.288Z,14.37
2018-02-11T12:55:56.682Z,10.10
2018-02-11T12:58:24.292Z,5.80
2018-02-11T13:00:51.921Z,10.73
2018-02-11T13:03:19.546Z,10.47
2018-02-11T13:05:47.166Z,6.43
2018-02-11T13:08:14.780Z,5.57
2018-02-11T13:10:42.380Z,6.70
2018-02-11T13:13:10.764Z,5.47
2018-02-11T13:15:39.148Z,6.17
2018-02-11T13:18:07.591Z,10.70
2018-02-11T13:20:35.924Z,8.03
2018-02-11T13:23:03.540Z,11.13
2018-02-11T13:25:31.156Z,11.03
2018-02-11T13:27:58.775Z,10.73
2018-02-11T13:30:26.446Z,10.53
2018-02-11T13:32:54.013Z,10.17
2018-02-11T13:35:21.632Z,7.77
2018-02-11T13:37:49.248Z,8.37
2018-02-11T13:40:16.856Z,7.60
2018-02-11T13:42:44.477Z,6.87
2018-02-11T13:45:12.088Z,9.20
2018-02-11T13:47:39.713Z,9.20
2018-02-11T13:50:07.339Z,6.87
2018-02-11T13:52:34.932Z,6.17
2018-02-11T13:55:02.554Z,3.67
2018-02-11T13:57:30.168Z,4.87
2018-02-11T13:59:58.133Z,7.80
2018-02-11T14:02:25.753Z,5.87
2018-02-11T14:04:53.371Z,5.33
2018-02-11T14:07:20.992Z,7.87
2018-02-11T14:09:48.643Z,7.73
2018-02-11T14:12:16.260Z,8.17
2018-02-11T14:14:43.876Z,6.67
2018-02-11T14:17:11.497Z,9.90
2018-02-11T14:19:39.108Z,6.07
2018-02-11T14:22:06.757Z,6.90
2018-02-11T14:24:35.252Z,4.90
2018-02-11T14:27:03.656Z,8.70
2018-02-11T14:29:32.020Z,5.83
2018-02-11T14:32:00.408Z,6.93
2018-02-11T14:34:28.034Z,9.73
2018-02-11T14:36:55.648Z,7.87
2018-02-11T14:39:23.268Z,11.10
2018-02-11T14:41:56.946Z,7.63
2018-02-11T14:44:24.565Z,9.80
2018-02-11T14:46:52.944Z,6.07
2018-02-11T14:49:21.325Z,11.13
2018-02-11T14:51:49.708Z,11.77
2018-02-11T14:54:18.089Z,8.27
2018-02-11T14:56:46.471Z,9.70
2018-02-11T14:59:14.097Z,6.60
2018-02-11T15:01:41.719Z,11.17
2018-02-11T15:04:09.332Z,8.77
2018-02-11T15:06:36.947Z,14.63
2018-02-11T15:09:04.564Z,14.03
2018-02-11T15:11:32.201Z,12.07
2018-02-11T15:14:00.957Z,9.93
2018-02-11T15:16:28.572Z,9.43
2018-02-11T15:18:58.104Z,6.13
2018-02-11T15:21:25.728Z,2.60
2018-02-11T15:23:53.341Z,6.80
2018-02-11T15:26:20.958Z,4.03
2018-02-11T15:28:48.576Z,7.37
2018-02-11T15:31:16.188Z,8.60
2018-02-11T15:33:43.808Z,9.20
2018-02-11T15:36:11.427Z,12.63
2018-02-11T15:38:39.052Z,13.47
2018-02-11T15:41:06.673Z,17.47
2018-02-11T15:43:34.296Z,11.70
2018-02-11T15:46:02.682Z,9.07
2018-02-11T15:48:31.060Z,12.10
2018-02-11T15:50:59.454Z,15.77
2018-02-11T15:53:27.845Z,10.10
2018-02-11T15:55:55.468Z,18.60
2018-02-11T15:58:23.085Z,12.13
2018-02-11T16:00:50.719Z,7.60
2018-02-11T16:03:21.958Z,9.77
2018-02-11T16:05:49.568Z,11.83
2018-02-11T16:08:17.216Z,13.43
2018-02-11T16:10:45.599Z,7.43
2018-02-11T16:13:13.220Z,9.17
2018-02-11T16:15:40.888Z,8.83
2018-02-11T16:18:08.477Z,5.13
2018-02-11T16:20:36.855Z,8.53
2018-02-11T16:23:04.478Z,5.87
2018-02-11T16:25:32.094Z,7.37
2018-02-11T16:27:59.712Z,3.93
2018-02-11T16:30:27.346Z,9.10
2018-02-11T16:32:55.757Z,7.37
2018-02-11T16:35:24.179Z,4.80
2018-02-11T16:37:51.780Z,4.43
2018-02-11T16:40:19.400Z,6.10
2018-02-11T16:42:47.173Z,8.10
2018-02-11T16:45:14.786Z,11.87
2018-02-11T16:47:42.400Z,7.30
2018-02-11T16:50:10.011Z,7.87
2018-02-11T16:52:38.394Z,4.57
2018-02-11T16:55:06.008Z,5.20
2018-02-11T16:57:33.623Z,8.03
2018-02-11T17:00:01.663Z,6.33
2018-02-11T17:02:29.284Z,13.50
2018-02-11T17:04:56.900Z,3.93
2018-02-11T17:07:24.516Z,7.33
2018-02-11T17:09:52.133Z,5.33
2018-02-11T17:12:19.756Z,7.57
2018-02-11T17:14:47.369Z,6.13
2018-02-11T17:17:14.981Z,9.33
2018-02-11T17:19:42.751Z,10.17
2018-02-11T17:22:10.510Z,9.97
2018-02-11T17:24:43.155Z,8.03
2018-02-11T17:27:10.923Z,13.07
2018-02-11T17:29:39.586Z,11.17
2018-02-11T17:32:07.560Z,11.63
2018-02-11T17:34:35.534Z,8.73
2018-02-11T17:37:03.185Z,10.83
2018-02-11T17:39:30.793Z,13.20
2018-02-11T17:41:59.176Z,14.97
2018-02-11T17:44:26.808Z,10.93
2018-02-11T17:46:54.424Z,9.17
2018-02-11T17:49:22.820Z,9.83
2018-02-11T17:51:52.388Z,11.73
2018-02-11T17:54:20.012Z,10.33
2018-02-11T17:56:47.659Z,7.00
2018-02-11T17:59:16.040Z,8.33
2018-02-11T18:01:43.672Z,9.83
2018-02-11T18:04:11.288Z,7.90
2018-02-11T18:06:38.909Z,10.70
2018-02-11T18:09:06.523Z,7.90
2018-02-11T18:11:34.153Z,5.07
2018-02-11T18:14:02.557Z,6.10
2018-02-11T18:16:30.930Z,13.27
2018-02-11T18:18:59.317Z,8.70
2018-02-11T18:21:27.704Z,12.00
2018-02-11T18:23:56.233Z,9.70
2018-02-11T18:26:23.852Z,7.03
2018-02-11T18:28:52.241Z,12.57
2018-02-11T18:31:20.619Z,8.07
2018-02-11T18:33:49.003Z,11.73
2018-02-11T18:36:17.396Z,9.47
2018-02-11T18:38:45.768Z,10.10
2018-02-11T18:41:13.400Z,7.50
2018-02-11T18:43:41.024Z,8.87
2018-02-11T18:46:08.656Z,9.90
2018-02-11T18:48:37.049Z,9.93
2018-02-11T18:51:05.435Z,10.47
2018-02-11T18:53:33.815Z,9.60
2018-02-11T18:56:02.204Z,10.17
2018-02-11T18:58:30.583Z,8.80
2018-02-11T19:00:58.967Z,9.23
2018-02-11T19:03:27.572Z,14.00
2018-02-11T19:05:55.185Z,7.63
2018-02-11T19:08:22.807Z,6.93
2018-02-11T19:10:50.434Z,15.20
2018-02-11T19:13:18.056Z,15.27
2018-02-11T19:15:45.684Z,12.03
2018-02-11T19:18:13.305Z,12.80
2018-02-11T19:20:40.929Z,7.80
2018-02-11T19:23:08.547Z,10.50
2018-02-11T19:25:36.159Z,9.87
2018-02-11T19:28:03.786Z,11.03
2018-02-11T19:30:31.405Z,7.50
2018-02-11T19:35:26.502Z,8.47
2018-02-11T19:37:58.780Z,10.20
2018-02-11T19:40:26.430Z,10.27
2018-02-11T19:42:54.090Z,14.17
2018-02-11T19:45:21.732Z,11.40
2018-02-11T19:47:49.363Z,6.73
2018-02-11T19:50:16.972Z,9.40
2018-02-11T19:52:44.602Z,7.43
2018-02-11T19:55:12.228Z,7.87
2018-02-11T19:57:40.628Z,12.37
2018-02-11T20:00:08.248Z,13.27
2018-02-11T20:02:35.881Z,9.30
2018-02-11T20:05:03.516Z,9.00
2018-02-11T20:07:31.897Z,11.00
2018-02-11T20:10:00.313Z,8.03
2018-02-11T20:12:27.923Z,9.17
2018-02-11T20:14:55.533Z,7.50
2018-02-11T20:17:23.184Z,8.40
2018-02-11T20:19:51.559Z,12.30
2018-02-11T20:22:19.939Z,9.70
2018-02-11T20:24:48.328Z,5.87
2018-02-11T20:27:16.718Z,6.17
2018-02-11T20:29:45.100Z,12.97
2018-02-11T20:32:13.514Z,7.20
2018-02-11T20:34:41.128Z,7.30
2018-02-11T20:37:08.749Z,8.93
2018-02-11T20:39:36.369Z,9.23
2018-02-11T20:42:04.790Z,11.40
2018-02-11T20:44:32.419Z,9.40
2018-02-11T20:47:00.820Z,5.27
2018-02-11T20:49:28.661Z,12.73
2018-02-11T20:51:56.278Z,7.50
2018-02-11T20:54:23.943Z,6.03
2018-02-11T20:56:51.517Z,3.70
2018-02-11T20:59:19.149Z,6.70
2018-02-11T21:01:47.531Z,3.00
2018-02-11T21:04:15.144Z,4.90
2018-02-11T21:06:42.781Z,6.33
2018-02-11T21:09:10.408Z,4.87
2018-02-11T21:11:38.046Z,5.83
2018-02-11T21:14:05.759Z,11.93
2018-02-11T21:16:34.140Z,7.53
2018-02-11T21:19:02.536Z,6.83
2018-02-11T21:21:35.692Z,6.10
2018-02-11T21:24:03.314Z,6.37
2018-02-11T21:26:30.917Z,8.27
2018-02-11T21:28:59.653Z,5.73
2018-02-11T21:31:36.144Z,5.80
2018-02-11T21:34:03.760Z,6.23
2018-02-11T21:36:31.403Z,5.80
2018-02-11T21:38:59.020Z,9.33
2018-02-11T21:41:26.639Z,7.80
2018-02-11T21:43:54.272Z,9.53
2018-02-11T21:46:21.896Z,8.37
2018-02-11T21:48:58.232Z,10.20
2018-02-11T21:51:25.872Z,14.43
2018-02-11T21:53:53.501Z,13.97
2018-02-11T21:56:21.888Z,13.87
2018-02-11T21:58:50.280Z,11.30
2018-02-11T22:01:17.932Z,14.20
2018-02-11T22:03:46.346Z,14.40
2018-02-11T22:06:13.981Z,14.90
2018-02-11T22:08:42.372Z,9.53
2018-02-11T22:11:10.749Z,16.80
2018-02-11T22:13:39.144Z,12.50
2018-02-11T22:16:06.771Z,16.70
2018-02-11T22:18:34.383Z,14.67
2018-02-11T22:21:02.004Z,14.10
2018-02-11T22:23:29.631Z,14.97
2018-02-11T22:25:57.280Z,13.13
2018-02-11T22:28:25.636Z,17.57
2018-02-11T22:30:53.263Z,13.33
2018-02-11T22:33:20.888Z,10.63
2018-02-11T22:35:48.515Z,11.93
2018-02-11T22:38:16.141Z,12.20
2018-02-11T22:40:43.771Z,9.87
2018-02-11T22:43:12.156Z,11.70
2018-02-11T22:45:40.558Z,8.27
2018-02-11T22:48:08.177Z,13.73
2018-02-11T22:50:35.801Z,10.57
2018-02-11T22:53:03.440Z,12.33
2018-02-11T22:55:31.829Z,8.57
2018-02-11T22:58:00.211Z,9.60
2018-02-11T23:00:29.368Z,10.07
2018-02-11T23:02:56.993Z,9.87
2018-02-11T23:05:24.612Z,6.30
2018-02-11T23:07:52.247Z,6.17
2018-02-11T23:10:19.862Z,8.40
2018-02-11T23:12:48.247Z,13.03
2018-02-11T23:15:16.649Z,12.93
2018-02-11T23:17:45.049Z,10.07
2018-02-11T23:20:12.668Z,10.43
2018-02-11T23:22:40.294Z,9.83
2018-02-11T23:25:07.916Z,11.80
2018-02-11T23:27:35.548Z,11.23
2018-02-11T23:30:03.173Z,8.63
2018-02-11T23:32:30.796Z,10.70
2018-02-11T23:34:58.600Z,10.70
2018-02-11T23:37:26.236Z,13.17
2018-02-11T23:39:53.852Z,9.17
2018-02-11T23:42:21.475Z,14.90
2018-02-11T23:44:49.867Z,9.77
2018-02-11T23:47:18.270Z,13.53
2018-02-11T23:49:45.895Z,9.77
2018-02-11T23:52:30.776Z,10.00
2018-02-11T23:54:59.174Z,11.60
2018-02-11T23:57:26.797Z,14.40
2018-02-11T23:59:54.413Z,10.17
